sensor_id;sensor_type;location;lat;lon;timestamp;temperature;humidity
35325;DHT22;35135;47.510;19.036;2024-03-08T00:00:19;21.20;55.70
35325;DHT22;35135;47.510;19.036;2024-03-08T00:02:46;21.20;55.70
35325;DHT22;35135;47.510;19.036;2024-03-08T00:05:12;21.20;56.20
35325;DHT22;35135;47.510;19.036;2024-03-08T00:07:40;21.20;55.60
35325;DHT22;35135;47.510;19.036;2024-03-08T00:10:07;21.20;55.70
35325;DHT22;35135;47.510;19.036;2024-03-08T00:12:37;21.20;55.70
35325;DHT22;35135;47.510;19.036;2024-03-08T00:15:03;21.20;55.70
35325;DHT22;35135;47.510;19.036;2024-03-08T00:17:29;21.20;55.70
35325;DHT22;35135;47.510;19.036;2024-03-08T00:19:55;21.20;55.70
35325;DHT22;35135;47.510;19.036;2024-03-08T00:22:20;21.20;55.70
35325;DHT22;35135;47.510;19.036;2024-03-08T00:24:47;21.20;55.70
35325;DHT22;35135;47.510;19.036;2024-03-08T00:27:16;21.20;55.70
35325;DHT22;35135;47.510;19.036;2024-03-08T00:29:41;21.20;55.70
35325;DHT22;35135;47.510;19.036;2024-03-08T00:32:07;21.20;55.60
35325;DHT22;35135;47.510;19.036;2024-03-08T00:34:36;21.10;55.60
35325;DHT22;35135;47.510;19.036;2024-03-08T00:37:03;21.10;55.70
35325;DHT22;35135;47.510;19.036;2024-03-08T00:39:29;21.20;55.70
35325;DHT22;35135;47.510;19.036;2024-03-08T00:41:55;21.20;55.60
35325;DHT22;35135;47.510;19.036;2024-03-08T00:44:21;21.20;55.60
35325;DHT22;35135;47.510;19.036;2024-03-08T00:46:46;21.20;55.60
35325;DHT22;35135;47.510;19.036;2024-03-08T00:49:12;21.20;55.70
35325;DHT22;35135;47.510;19.036;2024-03-08T00:51:38;21.20;55.70
35325;DHT22;35135;47.510;19.036;2024-03-08T00:54:04;21.20;55.70
35325;DHT22;35135;47.510;19.036;2024-03-08T00:56:29;21.20;55.70
35325;DHT22;35135;47.510;19.036;2024-03-08T00:58:55;21.20;55.70
35325;DHT22;35135;47.510;19.036;2024-03-08T01:01:21;21.10;55.60
35325;DHT22;35135;47.510;19.036;2024-03-08T01:03:46;21.10;55.60
35325;DHT22;35135;47.510;19.036;2024-03-08T01:06:13;21.10;55.60
35325;DHT22;35135;47.510;19.036;2024-03-08T01:08:40;21.10;55.60
35325;DHT22;35135;47.510;19.036;2024-03-08T01:11:08;21.10;55.60
35325;DHT22;35135;47.510;19.036;2024-03-08T01:13:34;21.10;55.70
35325;DHT22;35135;47.510;19.036;2024-03-08T01:16:00;21.10;55.70
35325;DHT22;35135;47.510;19.036;2024-03-08T01:18:25;21.10;55.60
35325;DHT22;35135;47.510;19.036;2024-03-08T01:20:51;21.10;55.60
35325;DHT22;35135;47.510;19.036;2024-03-08T01:23:17;21.10;55.50
35325;DHT22;35135;47.510;19.036;2024-03-08T01:25:42;21.10;56.20
35325;DHT22;35135;47.510;19.036;2024-03-08T01:28:09;21.10;55.50
35325;DHT22;35135;47.510;19.036;2024-03-08T01:30:35;21.10;55.60
35325;DHT22;35135;47.510;19.036;2024-03-08T01:33:02;21.10;55.60
35325;DHT22;35135;47.510;19.036;2024-03-08T01:35:28;21.10;55.60
35325;DHT22;35135;47.510;19.036;2024-03-08T01:37:54;21.10;55.60
35325;DHT22;35135;47.510;19.036;2024-03-08T01:40:20;21.10;55.70
35325;DHT22;35135;47.510;19.036;2024-03-08T01:42:46;21.10;55.60
35325;DHT22;35135;47.510;19.036;2024-03-08T01:45:11;21.10;55.60
35325;DHT22;35135;47.510;19.036;2024-03-08T01:47:38;21.10;55.60
35325;DHT22;35135;47.510;19.036;2024-03-08T01:50:04;21.00;55.60
35325;DHT22;35135;47.510;19.036;2024-03-08T01:52:32;21.10;55.60
35325;DHT22;35135;47.510;19.036;2024-03-08T01:55:03;21.10;55.50
35325;DHT22;35135;47.510;19.036;2024-03-08T01:57:32;21.00;55.50
35325;DHT22;35135;47.510;19.036;2024-03-08T02:00:04;21.00;55.60
35325;DHT22;35135;47.510;19.036;2024-03-08T02:02:32;21.00;55.60
35325;DHT22;35135;47.510;19.036;2024-03-08T02:04:58;21.00;55.50
35325;DHT22;35135;47.510;19.036;2024-03-08T02:07:25;21.00;55.50
35325;DHT22;35135;47.510;19.036;2024-03-08T02:09:51;21.00;55.50
35325;DHT22;35135;47.510;19.036;2024-03-08T02:12:17;21.00;55.50
35325;DHT22;35135;47.510;19.036;2024-03-08T02:14:46;21.00;55.50
35325;DHT22;35135;47.510;19.036;2024-03-08T02:17:12;21.00;55.50
35325;DHT22;35135;47.510;19.036;2024-03-08T02:19:38;21.00;55.50
35325;DHT22;35135;47.510;19.036;2024-03-08T02:22:05;21.00;55.50
35325;DHT22;35135;47.510;19.036;2024-03-08T02:24:31;21.00;55.40
35325;DHT22;35135;47.510;19.036;2024-03-08T02:26:57;21.00;55.50
35325;DHT22;35135;47.510;19.036;2024-03-08T02:29:23;21.00;55.50
35325;DHT22;35135;47.510;19.036;2024-03-08T02:31:51;21.00;55.50
35325;DHT22;35135;47.510;19.036;2024-03-08T02:34:17;21.00;55.40
35325;DHT22;35135;47.510;19.036;2024-03-08T02:36:42;21.00;55.50
35325;DHT22;35135;47.510;19.036;2024-03-08T02:39:08;21.00;55.40
35325;DHT22;35135;47.510;19.036;2024-03-08T02:41:36;21.00;55.50
35325;DHT22;35135;47.510;19.036;2024-03-08T02:44:02;21.00;55.50
35325;DHT22;35135;47.510;19.036;2024-03-08T02:46:27;21.00;55.50
35325;DHT22;35135;47.510;19.036;2024-03-08T02:48:53;20.90;55.50
35325;DHT22;35135;47.510;19.036;2024-03-08T02:51:19;21.00;55.50
35325;DHT22;35135;47.510;19.036;2024-03-08T02:53:45;21.00;55.50
35325;DHT22;35135;47.510;19.036;2024-03-08T02:56:14;20.90;55.40
35325;DHT22;35135;47.510;19.036;2024-03-08T02:58:43;21.00;55.50
35325;DHT22;35135;47.510;19.036;2024-03-08T03:01:14;20.90;55.40
35325;DHT22;35135;47.510;19.036;2024-03-08T03:03:41;20.90;55.50
35325;DHT22;35135;47.510;19.036;2024-03-08T03:06:06;20.90;55.40
35325;DHT22;35135;47.510;19.036;2024-03-08T03:08:32;20.90;55.40
35325;DHT22;35135;47.510;19.036;2024-03-08T03:10:58;20.90;55.40
35325;DHT22;35135;47.510;19.036;2024-03-08T03:13:24;20.90;55.40
35325;DHT22;35135;47.510;19.036;2024-03-08T03:15:49;20.90;55.40
35325;DHT22;35135;47.510;19.036;2024-03-08T03:18:15;20.90;55.40
35325;DHT22;35135;47.510;19.036;2024-03-08T03:20:41;20.90;55.40
35325;DHT22;35135;47.510;19.036;2024-03-08T03:23:08;20.90;55.40
35325;DHT22;35135;47.510;19.036;2024-03-08T03:25:35;20.90;55.40
35325;DHT22;35135;47.510;19.036;2024-03-08T03:28:03;20.90;55.40
35325;DHT22;35135;47.510;19.036;2024-03-08T03:30:30;20.90;55.40
35325;DHT22;35135;47.510;19.036;2024-03-08T03:33:02;20.90;55.40
35325;DHT22;35135;47.510;19.036;2024-03-08T03:35:32;20.90;55.40
35325;DHT22;35135;47.510;19.036;2024-03-08T03:37:58;20.90;55.40
35325;DHT22;35135;47.510;19.036;2024-03-08T03:40:39;20.90;55.50
35325;DHT22;35135;47.510;19.036;2024-03-08T03:43:05;20.90;55.40
35325;DHT22;35135;47.510;19.036;2024-03-08T03:45:31;20.90;55.40
35325;DHT22;35135;47.510;19.036;2024-03-08T03:48:03;20.90;55.40
35325;DHT22;35135;47.510;19.036;2024-03-08T03:50:29;20.90;55.40
35325;DHT22;35135;47.510;19.036;2024-03-08T03:52:55;20.90;55.40
35325;DHT22;35135;47.510;19.036;2024-03-08T03:55:21;20.90;55.40
35325;DHT22;35135;47.510;19.036;2024-03-08T03:57:47;20.90;55.40
35325;DHT22;35135;47.510;19.036;2024-03-08T04:00:13;20.90;55.40
35325;DHT22;35135;47.510;19.036;2024-03-08T04:02:39;20.90;55.40
35325;DHT22;35135;47.510;19.036;2024-03-08T04:05:07;20.90;55.40
35325;DHT22;35135;47.510;19.036;2024-03-08T04:07:33;20.90;55.40
35325;DHT22;35135;47.510;19.036;2024-03-08T04:10:03;20.90;55.40
35325;DHT22;35135;47.510;19.036;2024-03-08T04:12:29;20.90;55.40
35325;DHT22;35135;47.510;19.036;2024-03-08T04:14:56;20.90;55.40
35325;DHT22;35135;47.510;19.036;2024-03-08T04:17:22;20.90;55.30
35325;DHT22;35135;47.510;19.036;2024-03-08T04:19:49;20.90;55.40
35325;DHT22;35135;47.510;19.036;2024-03-08T04:22:15;20.90;55.40
35325;DHT22;35135;47.510;19.036;2024-03-08T04:24:42;20.90;55.30
35325;DHT22;35135;47.510;19.036;2024-03-08T04:27:07;20.80;55.30
35325;DHT22;35135;47.510;19.036;2024-03-08T04:29:33;20.90;55.90
35325;DHT22;35135;47.510;19.036;2024-03-08T04:32:01;20.80;55.30
35325;DHT22;35135;47.510;19.036;2024-03-08T04:34:29;20.80;55.20
35325;DHT22;35135;47.510;19.036;2024-03-08T04:36:57;20.80;55.30
35325;DHT22;35135;47.510;19.036;2024-03-08T04:39:23;20.90;55.30
35325;DHT22;35135;47.510;19.036;2024-03-08T04:41:49;20.80;55.20
35325;DHT22;35135;47.510;19.036;2024-03-08T04:44:15;20.80;55.20
35325;DHT22;35135;47.510;19.036;2024-03-08T04:46:41;20.90;55.20
35325;DHT22;35135;47.510;19.036;2024-03-08T04:49:07;20.80;55.20
35325;DHT22;35135;47.510;19.036;2024-03-08T04:51:33;20.80;55.20
35325;DHT22;35135;47.510;19.036;2024-03-08T04:53:59;20.80;55.20
35325;DHT22;35135;47.510;19.036;2024-03-08T04:56:25;20.80;55.20
35325;DHT22;35135;47.510;19.036;2024-03-08T04:58:51;20.80;55.20
35325;DHT22;35135;47.510;19.036;2024-03-08T05:01:17;20.80;55.30
35325;DHT22;35135;47.510;19.036;2024-03-08T05:03:42;20.80;55.30
35325;DHT22;35135;47.510;19.036;2024-03-08T05:06:09;20.80;55.20
35325;DHT22;35135;47.510;19.036;2024-03-08T05:08:34;20.80;55.20
35325;DHT22;35135;47.510;19.036;2024-03-08T05:11:00;20.80;55.20
35325;DHT22;35135;47.510;19.036;2024-03-08T05:13:32;20.80;55.20
35325;DHT22;35135;47.510;19.036;2024-03-08T05:15:59;20.80;55.20
35325;DHT22;35135;47.510;19.036;2024-03-08T05:18:25;20.80;55.20
35325;DHT22;35135;47.510;19.036;2024-03-08T05:20:52;20.80;55.20
35325;DHT22;35135;47.510;19.036;2024-03-08T05:23:17;20.80;55.20
35325;DHT22;35135;47.510;19.036;2024-03-08T05:25:45;20.80;55.20
35325;DHT22;35135;47.510;19.036;2024-03-08T05:28:12;20.80;55.20
35325;DHT22;35135;47.510;19.036;2024-03-08T05:30:38;20.80;55.20
35325;DHT22;35135;47.510;19.036;2024-03-08T05:33:04;20.80;55.20
35325;DHT22;35135;47.510;19.036;2024-03-08T05:35:30;20.70;55.20
35325;DHT22;35135;47.510;19.036;2024-03-08T05:37:56;20.80;55.20
35325;DHT22;35135;47.510;19.036;2024-03-08T05:40:23;20.80;55.20
35325;DHT22;35135;47.510;19.036;2024-03-08T05:42:49;20.80;55.20
35325;DHT22;35135;47.510;19.036;2024-03-08T05:45:15;20.70;55.20
35325;DHT22;35135;47.510;19.036;2024-03-08T05:47:41;20.80;55.20
35325;DHT22;35135;47.510;19.036;2024-03-08T05:50:08;20.70;55.10
35325;DHT22;35135;47.510;19.036;2024-03-08T05:52:36;20.80;55.20
35325;DHT22;35135;47.510;19.036;2024-03-08T05:55:03;20.80;55.20
35325;DHT22;35135;47.510;19.036;2024-03-08T05:57:32;20.80;55.20
35325;DHT22;35135;47.510;19.036;2024-03-08T05:59:58;20.80;55.20
35325;DHT22;35135;47.510;19.036;2024-03-08T06:02:23;20.80;55.30
35325;DHT22;35135;47.510;19.036;2024-03-08T06:04:49;20.80;55.30
35325;DHT22;35135;47.510;19.036;2024-03-08T06:07:15;20.80;55.30
35325;DHT22;35135;47.510;19.036;2024-03-08T06:09:43;20.80;55.30
35325;DHT22;35135;47.510;19.036;2024-03-08T06:12:11;20.80;55.20
35325;DHT22;35135;47.510;19.036;2024-03-08T06:14:37;20.90;55.20
35325;DHT22;35135;47.510;19.036;2024-03-08T06:17:03;20.90;55.20
35325;DHT22;35135;47.510;19.036;2024-03-08T06:19:32;20.90;55.20
35325;DHT22;35135;47.510;19.036;2024-03-08T06:21:58;20.90;55.20
35325;DHT22;35135;47.510;19.036;2024-03-08T06:24:24;20.90;55.20
35325;DHT22;35135;47.510;19.036;2024-03-08T06:26:49;20.90;55.40
35325;DHT22;35135;47.510;19.036;2024-03-08T06:29:15;20.90;55.20
35325;DHT22;35135;47.510;19.036;2024-03-08T06:31:41;20.90;55.20
35325;DHT22;35135;47.510;19.036;2024-03-08T06:34:07;20.90;55.20
35325;DHT22;35135;47.510;19.036;2024-03-08T06:36:33;20.90;55.20
35325;DHT22;35135;47.510;19.036;2024-03-08T06:39:00;20.90;55.20
35325;DHT22;35135;47.510;19.036;2024-03-08T06:41:25;20.90;55.30
35325;DHT22;35135;47.510;19.036;2024-03-08T06:43:52;20.90;55.30
35325;DHT22;35135;47.510;19.036;2024-03-08T06:46:22;20.90;55.20
35325;DHT22;35135;47.510;19.036;2024-03-08T06:48:48;20.90;55.20
35325;DHT22;35135;47.510;19.036;2024-03-08T06:51:14;20.90;55.10
35325;DHT22;35135;47.510;19.036;2024-03-08T06:53:43;20.90;55.20
35325;DHT22;35135;47.510;19.036;2024-03-08T06:56:09;20.90;55.10
35325;DHT22;35135;47.510;19.036;2024-03-08T06:58:34;20.90;55.20
35325;DHT22;35135;47.510;19.036;2024-03-08T07:01:00;20.90;55.20
35325;DHT22;35135;47.510;19.036;2024-03-08T07:03:29;20.90;55.20
35325;DHT22;35135;47.510;19.036;2024-03-08T07:05:56;20.90;55.30
35325;DHT22;35135;47.510;19.036;2024-03-08T07:08:23;20.90;55.30
35325;DHT22;35135;47.510;19.036;2024-03-08T07:10:49;20.90;55.40
35325;DHT22;35135;47.510;19.036;2024-03-08T07:13:15;20.90;55.30
35325;DHT22;35135;47.510;19.036;2024-03-08T07:15:43;20.90;55.30
35325;DHT22;35135;47.510;19.036;2024-03-08T07:18:08;20.90;55.40
35325;DHT22;35135;47.510;19.036;2024-03-08T07:20:39;20.90;55.40
35325;DHT22;35135;47.510;19.036;2024-03-08T07:23:05;20.90;55.40
35325;DHT22;35135;47.510;19.036;2024-03-08T07:25:31;20.90;55.50
35325;DHT22;35135;47.510;19.036;2024-03-08T07:27:56;20.90;55.40
35325;DHT22;35135;47.510;19.036;2024-03-08T07:30:26;20.90;55.30
35325;DHT22;35135;47.510;19.036;2024-03-08T07:33:11;20.90;56.10
35325;DHT22;35135;47.510;19.036;2024-03-08T07:35:38;20.90;55.50
35325;DHT22;35135;47.510;19.036;2024-03-08T07:38:05;20.90;55.40
35325;DHT22;35135;47.510;19.036;2024-03-08T07:40:37;20.90;55.40
35325;DHT22;35135;47.510;19.036;2024-03-08T07:43:12;20.90;55.40
35325;DHT22;35135;47.510;19.036;2024-03-08T07:45:38;20.90;55.40
35325;DHT22;35135;47.510;19.036;2024-03-08T07:48:04;20.90;55.50
35325;DHT22;35135;47.510;19.036;2024-03-08T07:50:38;20.90;55.50
35325;DHT22;35135;47.510;19.036;2024-03-08T07:53:05;20.90;55.50
35325;DHT22;35135;47.510;19.036;2024-03-08T07:55:34;20.90;55.50
35325;DHT22;35135;47.510;19.036;2024-03-08T07:58:01;20.90;55.60
35325;DHT22;35135;47.510;19.036;2024-03-08T08:00:28;20.80;55.60
35325;DHT22;35135;47.510;19.036;2024-03-08T08:02:55;20.80;55.40
35325;DHT22;35135;47.510;19.036;2024-03-08T08:05:21;20.80;55.50
35325;DHT22;35135;47.510;19.036;2024-03-08T08:07:47;20.80;55.60
35325;DHT22;35135;47.510;19.036;2024-03-08T08:10:13;20.80;55.60
35325;DHT22;35135;47.510;19.036;2024-03-08T08:12:48;20.80;55.60
35325;DHT22;35135;47.510;19.036;2024-03-08T08:15:14;20.80;55.50
35325;DHT22;35135;47.510;19.036;2024-03-08T08:17:44;20.80;55.50
35325;DHT22;35135;47.510;19.036;2024-03-08T08:20:10;20.80;55.50
35325;DHT22;35135;47.510;19.036;2024-03-08T08:22:38;20.80;55.60
35325;DHT22;35135;47.510;19.036;2024-03-08T08:25:05;20.80;55.60
35325;DHT22;35135;47.510;19.036;2024-03-08T08:27:31;20.80;55.50
35325;DHT22;35135;47.510;19.036;2024-03-08T08:29:56;20.80;55.40
35325;DHT22;35135;47.510;19.036;2024-03-08T08:32:22;20.80;55.40
35325;DHT22;35135;47.510;19.036;2024-03-08T08:34:49;20.80;55.40
35325;DHT22;35135;47.510;19.036;2024-03-08T08:37:14;20.80;55.40
35325;DHT22;35135;47.510;19.036;2024-03-08T08:39:42;20.90;55.40
35325;DHT22;35135;47.510;19.036;2024-03-08T08:42:07;20.90;55.40
35325;DHT22;35135;47.510;19.036;2024-03-08T08:44:35;20.90;55.40
35325;DHT22;35135;47.510;19.036;2024-03-08T08:47:01;20.90;55.30
35325;DHT22;35135;47.510;19.036;2024-03-08T08:49:29;20.90;55.30
35325;DHT22;35135;47.510;19.036;2024-03-08T08:51:56;20.90;55.30
35325;DHT22;35135;47.510;19.036;2024-03-08T08:54:24;20.90;55.20
35325;DHT22;35135;47.510;19.036;2024-03-08T08:56:51;20.90;55.30
35325;DHT22;35135;47.510;19.036;2024-03-08T08:59:16;20.90;55.20
35325;DHT22;35135;47.510;19.036;2024-03-08T09:01:48;20.90;55.10
35325;DHT22;35135;47.510;19.036;2024-03-08T09:04:15;20.90;55.20
35325;DHT22;35135;47.510;19.036;2024-03-08T09:06:41;20.90;55.20
35325;DHT22;35135;47.510;19.036;2024-03-08T09:09:07;20.90;55.20
35325;DHT22;35135;47.510;19.036;2024-03-08T09:11:38;20.90;55.80
35325;DHT22;35135;47.510;19.036;2024-03-08T09:14:08;20.90;55.20
35325;DHT22;35135;47.510;19.036;2024-03-08T09:16:34;20.90;55.20
35325;DHT22;35135;47.510;19.036;2024-03-08T09:19:00;20.90;55.30
35325;DHT22;35135;47.510;19.036;2024-03-08T09:21:25;20.90;55.20
35325;DHT22;35135;47.510;19.036;2024-03-08T09:23:53;20.90;55.30
35325;DHT22;35135;47.510;19.036;2024-03-08T09:26:19;21.00;55.50
35325;DHT22;35135;47.510;19.036;2024-03-08T09:28:46;21.00;55.60
35325;DHT22;35135;47.510;19.036;2024-03-08T09:31:12;21.00;55.90
35325;DHT22;35135;47.510;19.036;2024-03-08T09:33:38;20.90;55.90
35325;DHT22;35135;47.510;19.036;2024-03-08T09:36:06;21.00;56.00
35325;DHT22;35135;47.510;19.036;2024-03-08T09:38:33;21.00;56.00
35325;DHT22;35135;47.510;19.036;2024-03-08T09:41:00;21.00;56.10
35325;DHT22;35135;47.510;19.036;2024-03-08T09:43:28;20.90;56.00
35325;DHT22;35135;47.510;19.036;2024-03-08T09:45:54;21.00;55.80
35325;DHT22;35135;47.510;19.036;2024-03-08T09:48:21;20.90;55.60
35325;DHT22;35135;47.510;19.036;2024-03-08T09:50:47;21.00;56.00
35325;DHT22;35135;47.510;19.036;2024-03-08T09:53:14;21.00;55.90
35325;DHT22;35135;47.510;19.036;2024-03-08T09:55:39;20.90;52.40
35325;DHT22;35135;47.510;19.036;2024-03-08T09:58:09;20.70;49.30
35325;DHT22;35135;47.510;19.036;2024-03-08T10:00:54;20.40;48.40
35325;DHT22;35135;47.510;19.036;2024-03-08T10:03:20;20.20;47.70
35325;DHT22;35135;47.510;19.036;2024-03-08T10:05:46;20.00;47.40
35325;DHT22;35135;47.510;19.036;2024-03-08T10:08:12;19.90;47.70
35325;DHT22;35135;47.510;19.036;2024-03-08T10:10:39;19.70;46.90
35325;DHT22;35135;47.510;19.036;2024-03-08T10:13:09;19.60;46.90
35325;DHT22;35135;47.510;19.036;2024-03-08T10:15:39;19.60;50.00
35325;DHT22;35135;47.510;19.036;2024-03-08T10:18:05;19.60;51.20
35325;DHT22;35135;47.510;19.036;2024-03-08T10:20:32;19.80;51.70
35325;DHT22;35135;47.510;19.036;2024-03-08T10:23:01;19.90;51.90
35325;DHT22;35135;47.510;19.036;2024-03-08T10:25:31;20.00;52.20
35325;DHT22;35135;47.510;19.036;2024-03-08T10:27:57;20.20;52.80
35325;DHT22;35135;47.510;19.036;2024-03-08T10:30:23;20.30;53.20
35325;DHT22;35135;47.510;19.036;2024-03-08T10:32:49;20.40;53.60
35325;DHT22;35135;47.510;19.036;2024-03-08T10:35:15;20.40;54.00
35325;DHT22;35135;47.510;19.036;2024-03-08T10:37:50;20.50;54.20
35325;DHT22;35135;47.510;19.036;2024-03-08T10:40:24;20.50;56.30
35325;DHT22;35135;47.510;19.036;2024-03-08T10:42:58;20.60;55.90
35325;DHT22;35135;47.510;19.036;2024-03-08T10:45:36;20.60;56.00
35325;DHT22;35135;47.510;19.036;2024-03-08T10:50:44;20.70;55.60
35325;DHT22;35135;47.510;19.036;2024-03-08T10:53:13;20.70;56.40
35325;DHT22;35135;47.510;19.036;2024-03-08T10:55:40;20.70;56.10
35325;DHT22;35135;47.510;19.036;2024-03-08T10:58:08;20.80;56.60
35325;DHT22;35135;47.510;19.036;2024-03-08T11:00:35;20.80;56.40
35325;DHT22;35135;47.510;19.036;2024-03-08T11:03:03;20.80;56.30
35325;DHT22;35135;47.510;19.036;2024-03-08T11:05:41;20.80;56.70
35325;DHT22;35135;47.510;19.036;2024-03-08T11:08:17;20.80;56.70
35325;DHT22;35135;47.510;19.036;2024-03-08T11:10:53;20.80;57.00
35325;DHT22;35135;47.510;19.036;2024-03-08T11:13:39;20.80;57.10
35325;DHT22;35135;47.510;19.036;2024-03-08T11:16:13;20.80;57.30
35325;DHT22;35135;47.510;19.036;2024-03-08T11:19:04;20.80;57.20
35325;DHT22;35135;47.510;19.036;2024-03-08T11:21:31;20.70;57.20
35325;DHT22;35135;47.510;19.036;2024-03-08T11:24:13;20.70;57.10
35325;DHT22;35135;47.510;19.036;2024-03-08T11:26:40;20.70;57.00
35325;DHT22;35135;47.510;19.036;2024-03-08T11:32:16;20.70;56.60
35325;DHT22;35135;47.510;19.036;2024-03-08T11:34:48;20.70;56.50
35325;DHT22;35135;47.510;19.036;2024-03-08T11:37:18;20.70;56.50
35325;DHT22;35135;47.510;19.036;2024-03-08T11:39:47;20.80;56.20
35325;DHT22;35135;47.510;19.036;2024-03-08T11:42:17;20.80;56.40
35325;DHT22;35135;47.510;19.036;2024-03-08T11:44:43;20.80;56.70
35325;DHT22;35135;47.510;19.036;2024-03-08T11:47:12;20.80;56.40
35325;DHT22;35135;47.510;19.036;2024-03-08T11:49:39;20.80;56.50
35325;DHT22;35135;47.510;19.036;2024-03-08T11:52:11;20.90;56.30
35325;DHT22;35135;47.510;19.036;2024-03-08T11:54:52;20.90;56.40
35325;DHT22;35135;47.510;19.036;2024-03-08T11:57:24;20.90;56.20
35325;DHT22;35135;47.510;19.036;2024-03-08T11:59:54;20.90;56.20
35325;DHT22;35135;47.510;19.036;2024-03-08T12:02:24;20.90;56.10
35325;DHT22;35135;47.510;19.036;2024-03-08T12:05:00;20.90;56.10
35325;DHT22;35135;47.510;19.036;2024-03-08T12:07:31;20.90;56.10
35325;DHT22;35135;47.510;19.036;2024-03-08T12:10:16;21.00;56.20
35325;DHT22;35135;47.510;19.036;2024-03-08T12:12:48;21.00;56.10
35325;DHT22;35135;47.510;19.036;2024-03-08T12:15:15;20.90;56.20
35325;DHT22;35135;47.510;19.036;2024-03-08T12:17:43;21.00;56.40
35325;DHT22;35135;47.510;19.036;2024-03-08T12:20:27;20.90;56.20
35325;DHT22;35135;47.510;19.036;2024-03-08T12:22:55;21.00;56.20
35325;DHT22;35135;47.510;19.036;2024-03-08T12:25:33;21.00;56.40
35325;DHT22;35135;47.510;19.036;2024-03-08T12:28:09;21.00;56.30
35325;DHT22;35135;47.510;19.036;2024-03-08T12:30:51;21.00;56.40
35325;DHT22;35135;47.510;19.036;2024-03-08T12:33:19;21.00;56.50
35325;DHT22;35135;47.510;19.036;2024-03-08T12:35:52;20.90;56.50
35325;DHT22;35135;47.510;19.036;2024-03-08T12:38:20;20.90;56.40
35325;DHT22;35135;47.510;19.036;2024-03-08T12:40:50;20.90;56.30
35325;DHT22;35135;47.510;19.036;2024-03-08T12:43:16;20.90;56.30
35325;DHT22;35135;47.510;19.036;2024-03-08T12:45:42;20.90;56.30
35325;DHT22;35135;47.510;19.036;2024-03-08T12:48:13;20.90;56.40
35325;DHT22;35135;47.510;19.036;2024-03-08T12:50:42;20.90;56.20
35325;DHT22;35135;47.510;19.036;2024-03-08T12:53:10;20.90;56.50
35325;DHT22;35135;47.510;19.036;2024-03-08T12:55:36;20.90;56.30
35325;DHT22;35135;47.510;19.036;2024-03-08T12:58:02;20.90;56.20
35325;DHT22;35135;47.510;19.036;2024-03-08T13:00:28;20.90;56.20
35325;DHT22;35135;47.510;19.036;2024-03-08T13:02:54;21.00;56.20
35325;DHT22;35135;47.510;19.036;2024-03-08T13:05:21;20.90;56.10
35325;DHT22;35135;47.510;19.036;2024-03-08T13:07:46;21.00;56.40
35325;DHT22;35135;47.510;19.036;2024-03-08T13:10:13;20.90;56.40
35325;DHT22;35135;47.510;19.036;2024-03-08T13:12:42;20.90;56.40
35325;DHT22;35135;47.510;19.036;2024-03-08T13:15:09;20.90;56.40
35325;DHT22;35135;47.510;19.036;2024-03-08T13:17:40;20.90;56.30
35325;DHT22;35135;47.510;19.036;2024-03-08T13:20:07;20.90;56.30
35325;DHT22;35135;47.510;19.036;2024-03-08T13:22:33;20.90;56.30
35325;DHT22;35135;47.510;19.036;2024-03-08T13:24:59;20.90;56.30
35325;DHT22;35135;47.510;19.036;2024-03-08T13:27:27;20.90;56.30
35325;DHT22;35135;47.510;19.036;2024-03-08T13:29:53;20.90;56.20
35325;DHT22;35135;47.510;19.036;2024-03-08T13:32:19;20.90;56.30
35325;DHT22;35135;47.510;19.036;2024-03-08T13:34:48;20.90;56.30
35325;DHT22;35135;47.510;19.036;2024-03-08T13:37:16;20.90;56.20
35325;DHT22;35135;47.510;19.036;2024-03-08T13:39:42;20.90;56.20
35325;DHT22;35135;47.510;19.036;2024-03-08T13:42:15;20.90;56.20
35325;DHT22;35135;47.510;19.036;2024-03-08T13:44:45;20.90;56.20
35325;DHT22;35135;47.510;19.036;2024-03-08T13:47:15;20.90;56.20
35325;DHT22;35135;47.510;19.036;2024-03-08T13:49:42;20.90;56.20
35325;DHT22;35135;47.510;19.036;2024-03-08T13:52:10;20.90;56.10
35325;DHT22;35135;47.510;19.036;2024-03-08T13:54:36;20.90;56.00
35325;DHT22;35135;47.510;19.036;2024-03-08T13:57:02;21.00;55.90
35325;DHT22;35135;47.510;19.036;2024-03-08T13:59:33;21.00;56.00
35325;DHT22;35135;47.510;19.036;2024-03-08T14:02:01;21.00;55.90
35325;DHT22;35135;47.510;19.036;2024-03-08T14:04:28;21.00;56.00
35325;DHT22;35135;47.510;19.036;2024-03-08T14:06:54;21.00;55.80
35325;DHT22;35135;47.510;19.036;2024-03-08T14:09:26;21.00;55.90
35325;DHT22;35135;47.510;19.036;2024-03-08T14:11:54;21.00;56.00
35325;DHT22;35135;47.510;19.036;2024-03-08T14:14:23;21.00;56.00
35325;DHT22;35135;47.510;19.036;2024-03-08T14:16:49;21.00;56.10
35325;DHT22;35135;47.510;19.036;2024-03-08T14:19:20;21.00;56.10
35325;DHT22;35135;47.510;19.036;2024-03-08T14:21:46;21.00;56.20
35325;DHT22;35135;47.510;19.036;2024-03-08T14:24:14;21.00;56.30
35325;DHT22;35135;47.510;19.036;2024-03-08T14:26:41;21.00;56.20
35325;DHT22;35135;47.510;19.036;2024-03-08T14:29:07;21.00;56.20
35325;DHT22;35135;47.510;19.036;2024-03-08T14:31:38;20.90;56.20
35325;DHT22;35135;47.510;19.036;2024-03-08T14:34:04;20.90;56.20
35325;DHT22;35135;47.510;19.036;2024-03-08T14:36:30;20.90;56.10
35325;DHT22;35135;47.510;19.036;2024-03-08T14:38:55;20.90;56.20
35325;DHT22;35135;47.510;19.036;2024-03-08T14:41:21;20.90;56.10
35325;DHT22;35135;47.510;19.036;2024-03-08T14:43:50;20.90;56.70
35325;DHT22;35135;47.510;19.036;2024-03-08T14:46:19;20.90;56.40
35325;DHT22;35135;47.510;19.036;2024-03-08T14:48:55;20.80;56.10
35325;DHT22;35135;47.510;19.036;2024-03-08T14:51:22;20.90;56.10
35325;DHT22;35135;47.510;19.036;2024-03-08T14:53:53;20.90;56.70
35325;DHT22;35135;47.510;19.036;2024-03-08T14:56:20;20.90;56.10
35325;DHT22;35135;47.510;19.036;2024-03-08T14:58:46;20.80;56.00
35325;DHT22;35135;47.510;19.036;2024-03-08T15:01:15;20.80;56.00
35325;DHT22;35135;47.510;19.036;2024-03-08T15:03:41;20.80;56.00
35325;DHT22;35135;47.510;19.036;2024-03-08T15:06:08;20.80;56.00
35325;DHT22;35135;47.510;19.036;2024-03-08T15:08:39;20.80;56.00
35325;DHT22;35135;47.510;19.036;2024-03-08T15:11:06;20.80;56.00
35325;DHT22;35135;47.510;19.036;2024-03-08T15:13:32;20.80;56.00
35325;DHT22;35135;47.510;19.036;2024-03-08T15:16:09;20.80;55.90
35325;DHT22;35135;47.510;19.036;2024-03-08T15:18:40;20.80;55.90
35325;DHT22;35135;47.510;19.036;2024-03-08T15:21:06;20.80;55.90
35325;DHT22;35135;47.510;19.036;2024-03-08T15:23:35;20.80;55.90